Villa Carlos Paz, Argentina
Current Conditions -  °F | °C
As of 7:00 PM on Monday 26 Jan 2015 (Local Time) from SACO Reporting Station
Thunderstorm Thunderstorm  
Wind Chill: 79°   Ceiling: Unl
Heat Index: 81°   Visibility: 6mi
Dew Point: 70°   Wind: 15mph
Humidity: 74%   Direction: 180°S
Pressure: 29.83"   Gusts: NA
Location:  31.42°S, 64.5°W
Report Text: SACO 262200Z 18013KT 9999 TS SCT030SCT040CB 26/21 Q1010
Loading
Personal Weather Stations






























Interactive Weather Map New forecast layout! Learn more

10-Day Weather Forecast

Advertisements
Track Severe Weather on mobile